<?xml version="1.0" encoding="utf-8"?>
<gpx xmlns:xsi="http://www.w3.org/2001/XMLSchema-instance" xmlns:xsd="http://www.w3.org/2001/XMLSchema" version="1.1" creator="Shapelink.com" xmlns="http://www.topografix.com/GPX/1/1" xmlns:gpxtpx="http://www.garmin.com/xmlschemas/TrackPointExtension/v1">
  <metadata>
    <name>Löpning 5.08 km, 2019-01-31</name>
    <desc></desc>
    <author><name>Marian Moron</name></author> 
    <time>2019-01-31T21:50:08Z</time>
  </metadata>
  <trk>
    <name>Löpning 5.08 km, 2019-01-31</name>
    <trkseg>
      <trkpt lat="51.229091451081" lon="4.458132869323">
        <ele>12.6</ele>
        <time>2019-01-31T21:50:08Z</time>
      </trkpt>
      <trkpt lat="51.22890294215" lon="4.458175449375">
        <ele>15.2</ele>
        <time>2019-01-31T21:50:15Z</time>
      </trkpt>
      <trkpt lat="51.228697166505" lon="4.458222471834">
        <ele>13.6</ele>
        <time>2019-01-31T21:50:22Z</time>
      </trkpt>
      <trkpt lat="51.2285215657" lon="4.4583409919">
        <ele>15.8</ele>
        <time>2019-01-31T21:50:29Z</time>
      </trkpt>
      <trkpt lat="51.228338421185" lon="4.458444508365">
        <ele>14.6</ele>
        <time>2019-01-31T21:50:36Z</time>
      </trkpt>
      <trkpt lat="51.228163742389" lon="4.458535200523">
        <ele>13.8</ele>
        <time>2019-01-31T21:50:44Z</time>
      </trkpt>
      <trkpt lat="51.227974143811" lon="4.458640561006">
        <ele>11.8</ele>
        <time>2019-01-31T21:50:51Z</time>
      </trkpt>
      <trkpt lat="51.227780857197" lon="4.458727062214">
        <ele>12.4</ele>
        <time>2019-01-31T21:50:59Z</time>
      </trkpt>
      <trkpt lat="51.22760626222" lon="4.458820520399">
        <ele>12</ele>
        <time>2019-01-31T21:51:06Z</time>
      </trkpt>
      <trkpt lat="51.227414819624" lon="4.458901992467">
        <ele>12.2</ele>
        <time>2019-01-31T21:51:14Z</time>
      </trkpt>
      <trkpt lat="51.227221952105" lon="4.459023194741">
        <ele>10.4</ele>
        <time>2019-01-31T21:51:21Z</time>
      </trkpt>
      <trkpt lat="51.227051548078" lon="4.45917331457">
        <ele>9</ele>
        <time>2019-01-31T21:51:28Z</time>
      </trkpt>
      <trkpt lat="51.226869325572" lon="4.459291666998">
        <ele>7.2</ele>
        <time>2019-01-31T21:51:35Z</time>
      </trkpt>
      <trkpt lat="51.226697915717" lon="4.45940046406">
        <ele>4.6</ele>
        <time>2019-01-31T21:51:41Z</time>
      </trkpt>
      <trkpt lat="51.226518626876" lon="4.459518900307">
        <ele>1.6</ele>
        <time>2019-01-31T21:51:48Z</time>
      </trkpt>
      <trkpt lat="51.226343780442" lon="4.45962761355">
        <ele>0</ele>
        <time>2019-01-31T21:51:55Z</time>
      </trkpt>
      <trkpt lat="51.226173208777" lon="4.459771111678">
        <ele>0</ele>
        <time>2019-01-31T21:52:04Z</time>
      </trkpt>
      <trkpt lat="51.22600029018" lon="4.459896504902">
        <ele>0</ele>
        <time>2019-01-31T21:52:12Z</time>
      </trkpt>
      <trkpt lat="51.22583349037" lon="4.460008570905">
        <ele>0</ele>
        <time>2019-01-31T21:52:18Z</time>
      </trkpt>
      <trkpt lat="51.225639617023" lon="4.460110746266">
        <ele>0</ele>
        <time>2019-01-31T21:52:25Z</time>
      </trkpt>
      <trkpt lat="51.225440714536" lon="4.460213173084">
        <ele>0</ele>
        <time>2019-01-31T21:52:33Z</time>
      </trkpt>
      <trkpt lat="51.225269639957" lon="4.460399251264">
        <ele>0</ele>
        <time>2019-01-31T21:52:40Z</time>
      </trkpt>
      <trkpt lat="51.225105354717" lon="4.460525147402">
        <ele>0</ele>
        <time>2019-01-31T21:52:46Z</time>
      </trkpt>
      <trkpt lat="51.224933190491" lon="4.46063679431">
        <ele>0</ele>
        <time>2019-01-31T21:52:52Z</time>
      </trkpt>
      <trkpt lat="51.224764295206" lon="4.460763863914">
        <ele>0</ele>
        <time>2019-01-31T21:52:58Z</time>
      </trkpt>
      <trkpt lat="51.22457704356" lon="4.46090082416">
        <ele>0</ele>
        <time>2019-01-31T21:53:05Z</time>
      </trkpt>
      <trkpt lat="51.224400436927" lon="4.461028983411">
        <ele>0</ele>
        <time>2019-01-31T21:53:12Z</time>
      </trkpt>
      <trkpt lat="51.224233134203" lon="4.461157477938">
        <ele>0</ele>
        <time>2019-01-31T21:53:18Z</time>
      </trkpt>
      <trkpt lat="51.224066502031" lon="4.461333078743">
        <ele>0</ele>
        <time>2019-01-31T21:53:25Z</time>
      </trkpt>
      <trkpt lat="51.223910850148" lon="4.4614842044">
        <ele>0</ele>
        <time>2019-01-31T21:53:31Z</time>
      </trkpt>
      <trkpt lat="51.223754360075" lon="4.461627870166">
        <ele>0</ele>
        <time>2019-01-31T21:53:37Z</time>
      </trkpt>
      <trkpt lat="51.223541962729" lon="4.461720657799">
        <ele>0</ele>
        <time>2019-01-31T21:53:45Z</time>
      </trkpt>
      <trkpt lat="51.223348676115" lon="4.461825515368">
        <ele>0</ele>
        <time>2019-01-31T21:53:52Z</time>
      </trkpt>
      <trkpt lat="51.223166285971" lon="4.461958536121">
        <ele>0</ele>
        <time>2019-01-31T21:53:59Z</time>
      </trkpt>
      <trkpt lat="51.222967383484" lon="4.462036655429">
        <ele>0</ele>
        <time>2019-01-31T21:54:05Z</time>
      </trkpt>
      <trkpt lat="51.222778455458" lon="4.462143608473">
        <ele>0</ele>
        <time>2019-01-31T21:54:12Z</time>
      </trkpt>
      <trkpt lat="51.222611990924" lon="4.462253495182">
        <ele>0</ele>
        <time>2019-01-31T21:54:18Z</time>
      </trkpt>
      <trkpt lat="51.222437395947" lon="4.462408644151">
        <ele>0.2</ele>
        <time>2019-01-31T21:54:25Z</time>
      </trkpt>
      <trkpt lat="51.22227621201" lon="4.462554321573">
        <ele>2.2</ele>
        <time>2019-01-31T21:54:31Z</time>
      </trkpt>
      <trkpt lat="51.222101114119" lon="4.462679044245">
        <ele>5.4</ele>
        <time>2019-01-31T21:54:38Z</time>
      </trkpt>
      <trkpt lat="51.22193674506" lon="4.462532863909">
        <ele>5.4</ele>
        <time>2019-01-31T21:54:44Z</time>
      </trkpt>
      <trkpt lat="51.221752762355" lon="4.462411074902">
        <ele>4.2</ele>
        <time>2019-01-31T21:54:51Z</time>
      </trkpt>
      <trkpt lat="51.221577077731" lon="4.4623140125">
        <ele>0.8</ele>
        <time>2019-01-31T21:54:57Z</time>
      </trkpt>
      <trkpt lat="51.22139527432" lon="4.462243101626">
        <ele>0</ele>
        <time>2019-01-31T21:55:03Z</time>
      </trkpt>
      <trkpt lat="51.22121757804" lon="4.462142602645">
        <ele>0</ele>
        <time>2019-01-31T21:55:10Z</time>
      </trkpt>
      <trkpt lat="51.22113292085" lon="4.462072278504">
        <ele>0</ele>
        <time>2019-01-31T21:55:15Z</time>
      </trkpt>
      <trkpt lat="51.220787418932" lon="4.461729374975">
        <ele>0</ele>
        <time>2019-01-31T21:55:33Z</time>
      </trkpt>
      <trkpt lat="51.220644423718" lon="4.461538602931">
        <ele>0</ele>
        <time>2019-01-31T21:55:38Z</time>
      </trkpt>
      <trkpt lat="51.220503859255" lon="4.461281613877">
        <ele>0</ele>
        <time>2019-01-31T21:55:42Z</time>
      </trkpt>
      <trkpt lat="51.220320798559" lon="4.461099559009">
        <ele>0</ele>
        <time>2019-01-31T21:55:49Z</time>
      </trkpt>
      <trkpt lat="51.220145952125" lon="4.460938794167">
        <ele>4</ele>
        <time>2019-01-31T21:55:56Z</time>
      </trkpt>
      <trkpt lat="51.220220718673" lon="4.460664957494">
        <ele>1.8</ele>
        <time>2019-01-31T21:56:04Z</time>
      </trkpt>
      <trkpt lat="51.220250977332" lon="4.460356671212">
        <ele>0</ele>
        <time>2019-01-31T21:56:11Z</time>
      </trkpt>
      <trkpt lat="51.2202905399" lon="4.460044696894">
        <ele>0</ele>
        <time>2019-01-31T21:56:17Z</time>
      </trkpt>
      <trkpt lat="51.220311243193" lon="4.459870101917">
        <ele>0</ele>
        <time>2019-01-31T21:56:23Z</time>
      </trkpt>
      <trkpt lat="51.220130697067" lon="4.459937324755">
        <ele>0</ele>
        <time>2019-01-31T21:56:29Z</time>
      </trkpt>
      <trkpt lat="51.219929531467" lon="4.460011253113">
        <ele>0</ele>
        <time>2019-01-31T21:56:35Z</time>
      </trkpt>
      <trkpt lat="51.219728617324" lon="4.460095994122">
        <ele>0.2</ele>
        <time>2019-01-31T21:56:42Z</time>
      </trkpt>
      <trkpt lat="51.219538515832" lon="4.460199175311">
        <ele>0</ele>
        <time>2019-01-31T21:56:50Z</time>
      </trkpt>
      <trkpt lat="51.219365848692" lon="4.460218286043">
        <ele>0</ele>
        <time>2019-01-31T21:56:57Z</time>
      </trkpt>
      <trkpt lat="51.21935679624" lon="4.460204204451">
        <ele>0</ele>
        <time>2019-01-31T21:56:58Z</time>
      </trkpt>
      <trkpt lat="51.219360232819" lon="4.460189787583">
        <ele>0</ele>
        <time>2019-01-31T21:57:00Z</time>
      </trkpt>
      <trkpt lat="51.219382863949" lon="4.460183165882">
        <ele>0</ele>
        <time>2019-01-31T21:57:02Z</time>
      </trkpt>
      <trkpt lat="51.21946995189" lon="4.460123067659">
        <ele>0</ele>
        <time>2019-01-31T21:57:08Z</time>
      </trkpt>
      <trkpt lat="51.219680505218" lon="4.459971439088">
        <ele>0</ele>
        <time>2019-01-31T21:57:16Z</time>
      </trkpt>
      <trkpt lat="51.219841018603" lon="4.459827857141">
        <ele>3.2</ele>
        <time>2019-01-31T21:57:20Z</time>
      </trkpt>
      <trkpt lat="51.220030281905" lon="4.45974160739">
        <ele>5.6</ele>
        <time>2019-01-31T21:57:27Z</time>
      </trkpt>
      <trkpt lat="51.220192052575" lon="4.45959324776">
        <ele>2.6</ele>
        <time>2019-01-31T21:57:34Z</time>
      </trkpt>
      <trkpt lat="51.220184844141" lon="4.459282782184">
        <ele>9.8</ele>
        <time>2019-01-31T21:57:42Z</time>
      </trkpt>
      <trkpt lat="51.220330437744" lon="4.459008945511">
        <ele>15</ele>
        <time>2019-01-31T21:57:49Z</time>
      </trkpt>
      <trkpt lat="51.220418950608" lon="4.458695462451">
        <ele>22</ele>
        <time>2019-01-31T21:57:56Z</time>
      </trkpt>
      <trkpt lat="51.220398917867" lon="4.458384242504">
        <ele>26.2</ele>
        <time>2019-01-31T21:58:03Z</time>
      </trkpt>
      <trkpt lat="51.220427751603" lon="4.458050056151">
        <ele>27.6</ele>
        <time>2019-01-31T21:58:10Z</time>
      </trkpt>
      <trkpt lat="51.220422051911" lon="4.457714444875">
        <ele>27.6</ele>
        <time>2019-01-31T21:58:17Z</time>
      </trkpt>
      <trkpt lat="51.220438145159" lon="4.457397860512">
        <ele>26</ele>
        <time>2019-01-31T21:58:24Z</time>
      </trkpt>
      <trkpt lat="51.220414508201" lon="4.457083455443">
        <ele>21.6</ele>
        <time>2019-01-31T21:58:31Z</time>
      </trkpt>
      <trkpt lat="51.220407132129" lon="4.456787490554">
        <ele>22.6</ele>
        <time>2019-01-31T21:58:38Z</time>
      </trkpt>
      <trkpt lat="51.220419453522" lon="4.456500745755">
        <ele>21.2</ele>
        <time>2019-01-31T21:58:44Z</time>
      </trkpt>
      <trkpt lat="51.220386345017" lon="4.456213330404">
        <ele>20.6</ele>
        <time>2019-01-31T21:58:51Z</time>
      </trkpt>
      <trkpt lat="51.220289953167" lon="4.455923987216">
        <ele>23</ele>
        <time>2019-01-31T21:58:58Z</time>
      </trkpt>
      <trkpt lat="51.220186436702" lon="4.455687449998">
        <ele>21.4</ele>
        <time>2019-01-31T21:59:04Z</time>
      </trkpt>
      <trkpt lat="51.220009578612" lon="4.455473627729">
        <ele>15.6</ele>
        <time>2019-01-31T21:59:10Z</time>
      </trkpt>
      <trkpt lat="51.219850741607" lon="4.455294255069">
        <ele>10</ele>
        <time>2019-01-31T21:59:15Z</time>
      </trkpt>
      <trkpt lat="51.219703890719" lon="4.455074314013">
        <ele>10</ele>
        <time>2019-01-31T21:59:21Z</time>
      </trkpt>
      <trkpt lat="51.219569277405" lon="4.454841632469">
        <ele>2.6</ele>
        <time>2019-01-31T21:59:27Z</time>
      </trkpt>
      <trkpt lat="51.219534073425" lon="4.454547930693">
        <ele>0</ele>
        <time>2019-01-31T21:59:34Z</time>
      </trkpt>
      <trkpt lat="51.219448578045" lon="4.454264454835">
        <ele>0</ele>
        <time>2019-01-31T21:59:41Z</time>
      </trkpt>
      <trkpt lat="51.21930231389" lon="4.454074520981">
        <ele>0</ele>
        <time>2019-01-31T21:59:47Z</time>
      </trkpt>
      <trkpt lat="51.219183877643" lon="4.45380889857">
        <ele>0</ele>
        <time>2019-01-31T21:59:54Z</time>
      </trkpt>
      <trkpt lat="51.21909695734" lon="4.453500528469">
        <ele>0</ele>
        <time>2019-01-31T22:00:01Z</time>
      </trkpt>
      <trkpt lat="51.21898128712" lon="4.453238761732">
        <ele>0.4</ele>
        <time>2019-01-31T22:00:08Z</time>
      </trkpt>
      <trkpt lat="51.218869388755" lon="4.45296316486">
        <ele>0</ele>
        <time>2019-01-31T22:00:15Z</time>
      </trkpt>
      <trkpt lat="51.218781965538" lon="4.452706091987">
        <ele>0</ele>
        <time>2019-01-31T22:00:22Z</time>
      </trkpt>
      <trkpt lat="51.218677275607" lon="4.452464274172">
        <ele>0</ele>
        <time>2019-01-31T22:00:29Z</time>
      </trkpt>
      <trkpt lat="51.218573004771" lon="4.452213906819">
        <ele>0.4</ele>
        <time>2019-01-31T22:00:36Z</time>
      </trkpt>
      <trkpt lat="51.218452724506" lon="4.451867818168">
        <ele>0</ele>
        <time>2019-01-31T22:00:45Z</time>
      </trkpt>
      <trkpt lat="51.21837527575" lon="4.451575373677">
        <ele>0</ele>
        <time>2019-01-31T22:00:52Z</time>
      </trkpt>
      <trkpt lat="51.218300425383" lon="4.451271613621">
        <ele>0</ele>
        <time>2019-01-31T22:01:00Z</time>
      </trkpt>
      <trkpt lat="51.218239740427" lon="4.450973217981">
        <ele>0</ele>
        <time>2019-01-31T22:01:07Z</time>
      </trkpt>
      <trkpt lat="51.218185258077" lon="4.450680438214">
        <ele>0</ele>
        <time>2019-01-31T22:01:14Z</time>
      </trkpt>
      <trkpt lat="51.218155167056" lon="4.45038740699">
        <ele>2</ele>
        <time>2019-01-31T22:01:21Z</time>
      </trkpt>
      <trkpt lat="51.218098756869" lon="4.450072163731">
        <ele>0.4</ele>
        <time>2019-01-31T22:01:28Z</time>
      </trkpt>
      <trkpt lat="51.218066486554" lon="4.449763123078">
        <ele>1</ele>
        <time>2019-01-31T22:01:35Z</time>
      </trkpt>
      <trkpt lat="51.218022230122" lon="4.449464140705">
        <ele>2.2</ele>
        <time>2019-01-31T22:01:42Z</time>
      </trkpt>
      <trkpt lat="51.217979817708" lon="4.449156357337">
        <ele>2</ele>
        <time>2019-01-31T22:01:49Z</time>
      </trkpt>
      <trkpt lat="51.217928352842" lon="4.448858883706">
        <ele>0</ele>
        <time>2019-01-31T22:01:56Z</time>
      </trkpt>
      <trkpt lat="51.217867584067" lon="4.44856266736">
        <ele>0</ele>
        <time>2019-01-31T22:02:03Z</time>
      </trkpt>
      <trkpt lat="51.217823579092" lon="4.448261421874">
        <ele>0</ele>
        <time>2019-01-31T22:02:10Z</time>
      </trkpt>
      <trkpt lat="51.21775752972" lon="4.447973671247">
        <ele>0</ele>
        <time>2019-01-31T22:02:17Z</time>
      </trkpt>
      <trkpt lat="51.217720984636" lon="4.447687680819">
        <ele>0</ele>
        <time>2019-01-31T22:02:24Z</time>
      </trkpt>
      <trkpt lat="51.217842606005" lon="4.44757527954">
        <ele>0</ele>
        <time>2019-01-31T22:02:30Z</time>
      </trkpt>
      <trkpt lat="51.217979817708" lon="4.447765213394">
        <ele>0.8</ele>
        <time>2019-01-31T22:02:36Z</time>
      </trkpt>
      <trkpt lat="51.218088530951" lon="4.44800191825">
        <ele>1.4</ele>
        <time>2019-01-31T22:02:42Z</time>
      </trkpt>
      <trkpt lat="51.218179474566" lon="4.448287908678">
        <ele>6.6</ele>
        <time>2019-01-31T22:02:49Z</time>
      </trkpt>
      <trkpt lat="51.218171763218" lon="4.448597116969">
        <ele>9.6</ele>
        <time>2019-01-31T22:02:56Z</time>
      </trkpt>
      <trkpt lat="51.218225910292" lon="4.448909845658">
        <ele>9.2</ele>
        <time>2019-01-31T22:03:03Z</time>
      </trkpt>
      <trkpt lat="51.218282069022" lon="4.449198099199">
        <ele>6.2</ele>
        <time>2019-01-31T22:03:10Z</time>
      </trkpt>
      <trkpt lat="51.218339485037" lon="4.449496327201">
        <ele>5.8</ele>
        <time>2019-01-31T22:03:17Z</time>
      </trkpt>
      <trkpt lat="51.21836940842" lon="4.449782820543">
        <ele>4.6</ele>
        <time>2019-01-31T22:03:24Z</time>
      </trkpt>
      <trkpt lat="51.218416263241" lon="4.450084568943">
        <ele>4.6</ele>
        <time>2019-01-31T22:03:31Z</time>
      </trkpt>
      <trkpt lat="51.218450209936" lon="4.450383718954">
        <ele>5.8</ele>
        <time>2019-01-31T22:03:38Z</time>
      </trkpt>
      <trkpt lat="51.218508464141" lon="4.450677839825">
        <ele>7.6</ele>
        <time>2019-01-31T22:03:45Z</time>
      </trkpt>
      <trkpt lat="51.218576776626" lon="4.450968524117">
        <ele>6.8</ele>
        <time>2019-01-31T22:03:52Z</time>
      </trkpt>
      <trkpt lat="51.21864265836" lon="4.451273625277">
        <ele>6.8</ele>
        <time>2019-01-31T22:03:59Z</time>
      </trkpt>
      <trkpt lat="51.218714826519" lon="4.451553245461">
        <ele>5.4</ele>
        <time>2019-01-31T22:04:06Z</time>
      </trkpt>
      <trkpt lat="51.218787078497" lon="4.451843762115">
        <ele>4</ele>
        <time>2019-01-31T22:04:13Z</time>
      </trkpt>
      <trkpt lat="51.21888070432" lon="4.452126315964">
        <ele>4.2</ele>
        <time>2019-01-31T22:04:20Z</time>
      </trkpt>
      <trkpt lat="51.218988076459" lon="4.45235966806">
        <ele>4.4</ele>
        <time>2019-01-31T22:04:26Z</time>
      </trkpt>
      <trkpt lat="51.219101735023" lon="4.452626380118">
        <ele>1.6</ele>
        <time>2019-01-31T22:04:33Z</time>
      </trkpt>
      <trkpt lat="51.219201563452" lon="4.452872137426">
        <ele>0.4</ele>
        <time>2019-01-31T22:04:39Z</time>
      </trkpt>
      <trkpt lat="51.219315557292" lon="4.453131976326">
        <ele>0.2</ele>
        <time>2019-01-31T22:04:46Z</time>
      </trkpt>
      <trkpt lat="51.219423935259" lon="4.453387540457">
        <ele>0</ele>
        <time>2019-01-31T22:04:53Z</time>
      </trkpt>
      <trkpt lat="51.219568942129" lon="4.453573450999">
        <ele>8</ele>
        <time>2019-01-31T22:04:59Z</time>
      </trkpt>
      <trkpt lat="51.21967111749" lon="4.45383907341">
        <ele>10.8</ele>
        <time>2019-01-31T22:05:06Z</time>
      </trkpt>
      <trkpt lat="51.219711853524" lon="4.454168901175">
        <ele>14.8</ele>
        <time>2019-01-31T22:05:14Z</time>
      </trkpt>
      <trkpt lat="51.219824254803" lon="4.454439049812">
        <ele>18.2</ele>
        <time>2019-01-31T22:05:22Z</time>
      </trkpt>
      <trkpt lat="51.219932548951" lon="4.454719592005">
        <ele>18.4</ele>
        <time>2019-01-31T22:05:30Z</time>
      </trkpt>
      <trkpt lat="51.219940930851" lon="4.455119324816">
        <ele>14.4</ele>
        <time>2019-01-31T22:05:38Z</time>
      </trkpt>
      <trkpt lat="51.22001896634" lon="4.455271623939">
        <ele>15.4</ele>
        <time>2019-01-31T22:05:46Z</time>
      </trkpt>
      <trkpt lat="51.220172522748" lon="4.455057214937">
        <ele>11.2</ele>
        <time>2019-01-31T22:05:51Z</time>
      </trkpt>
      <trkpt lat="51.220296239592" lon="4.454799555331">
        <ele>11.8</ele>
        <time>2019-01-31T22:05:57Z</time>
      </trkpt>
      <trkpt lat="51.220469325827" lon="4.454520438061">
        <ele>9.8</ele>
        <time>2019-01-31T22:06:06Z</time>
      </trkpt>
      <trkpt lat="51.220618439828" lon="4.454338718469">
        <ele>9.6</ele>
        <time>2019-01-31T22:06:13Z</time>
      </trkpt>
      <trkpt lat="51.220820778894" lon="4.454273591106">
        <ele>9.2</ele>
        <time>2019-01-31T22:06:20Z</time>
      </trkpt>
      <trkpt lat="51.221020016657" lon="4.454255318564">
        <ele>5.6</ele>
        <time>2019-01-31T22:06:27Z</time>
      </trkpt>
      <trkpt lat="51.221214644375" lon="4.45421793529">
        <ele>0.8</ele>
        <time>2019-01-31T22:06:34Z</time>
      </trkpt>
      <trkpt lat="51.221402231297" lon="4.454220952774">
        <ele>0</ele>
        <time>2019-01-31T22:06:41Z</time>
      </trkpt>
      <trkpt lat="51.221596356101" lon="4.454213157607">
        <ele>0</ele>
        <time>2019-01-31T22:06:47Z</time>
      </trkpt>
      <trkpt lat="51.221792492561" lon="4.454231011054">
        <ele>0</ele>
        <time>2019-01-31T22:06:53Z</time>
      </trkpt>
      <trkpt lat="51.221995585998" lon="4.454266298853">
        <ele>5.2</ele>
        <time>2019-01-31T22:07:00Z</time>
      </trkpt>
      <trkpt lat="51.222189962259" lon="4.454326229438">
        <ele>4.6</ele>
        <time>2019-01-31T22:07:07Z</time>
      </trkpt>
      <trkpt lat="51.222370005471" lon="4.45438138234">
        <ele>8</ele>
        <time>2019-01-31T22:07:14Z</time>
      </trkpt>
      <trkpt lat="51.222542672611" lon="4.454192286676">
        <ele>2.4</ele>
        <time>2019-01-31T22:07:21Z</time>
      </trkpt>
      <trkpt lat="51.222662449962" lon="4.453960694779">
        <ele>4</ele>
        <time>2019-01-31T22:07:27Z</time>
      </trkpt>
      <trkpt lat="51.222781724399" lon="4.453717368222">
        <ele>8.4</ele>
        <time>2019-01-31T22:07:34Z</time>
      </trkpt>
      <trkpt lat="51.222899322456" lon="4.453468761068">
        <ele>11</ele>
        <time>2019-01-31T22:07:41Z</time>
      </trkpt>
      <trkpt lat="51.223022368748" lon="4.45323054747">
        <ele>10.8</ele>
        <time>2019-01-31T22:07:48Z</time>
      </trkpt>
      <trkpt lat="51.223154216035" lon="4.453013875355">
        <ele>8.8</ele>
        <time>2019-01-31T22:07:54Z</time>
      </trkpt>
      <trkpt lat="51.223279273983" lon="4.452748252944">
        <ele>8.8</ele>
        <time>2019-01-31T22:08:01Z</time>
      </trkpt>
      <trkpt lat="51.223392597271" lon="4.452517080142">
        <ele>5</ele>
        <time>2019-01-31T22:08:07Z</time>
      </trkpt>
      <trkpt lat="51.223515643563" lon="4.452269394997">
        <ele>2.6</ele>
        <time>2019-01-31T22:08:14Z</time>
      </trkpt>
      <trkpt lat="51.223636426742" lon="4.452027074268">
        <ele>0.8</ele>
        <time>2019-01-31T22:08:21Z</time>
      </trkpt>
      <trkpt lat="51.223761400871" lon="4.451778467114">
        <ele>0.4</ele>
        <time>2019-01-31T22:08:29Z</time>
      </trkpt>
      <trkpt lat="51.223926775758" lon="4.451736306157">
        <ele>0</ele>
        <time>2019-01-31T22:08:36Z</time>
      </trkpt>
      <trkpt lat="51.224107489522" lon="4.451825908668">
        <ele>0</ele>
        <time>2019-01-31T22:08:43Z</time>
      </trkpt>
      <trkpt lat="51.224300943774" lon="4.45192548564">
        <ele>0</ele>
        <time>2019-01-31T22:08:51Z</time>
      </trkpt>
      <trkpt lat="51.224493476017" lon="4.452003185853">
        <ele>0</ele>
        <time>2019-01-31T22:08:59Z</time>
      </trkpt>
      <trkpt lat="51.22468936102" lon="4.452050795045">
        <ele>0</ele>
        <time>2019-01-31T22:09:06Z</time>
      </trkpt>
      <trkpt lat="51.224877618494" lon="4.452093878011">
        <ele>0</ele>
        <time>2019-01-31T22:09:13Z</time>
      </trkpt>
      <trkpt lat="51.225052045833" lon="4.452188928757">
        <ele>0</ele>
        <time>2019-01-31T22:09:20Z</time>
      </trkpt>
      <trkpt lat="51.225150281701" lon="4.452408618356">
        <ele>0</ele>
        <time>2019-01-31T22:09:27Z</time>
      </trkpt>
      <trkpt lat="51.225114574807" lon="4.452709025652">
        <ele>0</ele>
        <time>2019-01-31T22:09:34Z</time>
      </trkpt>
      <trkpt lat="51.225079873741" lon="4.453033237544">
        <ele>0</ele>
        <time>2019-01-31T22:09:41Z</time>
      </trkpt>
      <trkpt lat="51.225073168221" lon="4.453197690422">
        <ele>0</ele>
        <time>2019-01-31T22:09:45Z</time>
      </trkpt>
      <trkpt lat="51.225107031097" lon="4.45324312032">
        <ele>0</ele>
        <time>2019-01-31T22:09:47Z</time>
      </trkpt>
      <trkpt lat="51.225289421241" lon="4.453245718709">
        <ele>0</ele>
        <time>2019-01-31T22:09:54Z</time>
      </trkpt>
      <trkpt lat="51.225470470281" lon="4.453218393715">
        <ele>1.2</ele>
        <time>2019-01-31T22:10:01Z</time>
      </trkpt>
      <trkpt lat="51.225664511266" lon="4.453220824466">
        <ele>0.8</ele>
        <time>2019-01-31T22:10:08Z</time>
      </trkpt>
      <trkpt lat="51.225857630242" lon="4.453170616885">
        <ele>1.6</ele>
        <time>2019-01-31T22:10:15Z</time>
      </trkpt>
      <trkpt lat="51.226058795842" lon="4.453139939131">
        <ele>5.8</ele>
        <time>2019-01-31T22:10:23Z</time>
      </trkpt>
      <trkpt lat="51.226252920646" lon="4.453152763438">
        <ele>6.2</ele>
        <time>2019-01-31T22:10:30Z</time>
      </trkpt>
      <trkpt lat="51.226437406265" lon="4.45315091942">
        <ele>3</ele>
        <time>2019-01-31T22:10:37Z</time>
      </trkpt>
      <trkpt lat="51.226633710363" lon="4.45316684503">
        <ele>4.4</ele>
        <time>2019-01-31T22:10:45Z</time>
      </trkpt>
      <trkpt lat="51.226758684492" lon="4.45321043091">
        <ele>3.8</ele>
        <time>2019-01-31T22:10:50Z</time>
      </trkpt>
      <trkpt lat="51.226813418299" lon="4.453530535671">
        <ele>2.8</ele>
        <time>2019-01-31T22:10:56Z</time>
      </trkpt>
      <trkpt lat="51.226815681412" lon="4.453826668198">
        <ele>0.6</ele>
        <time>2019-01-31T22:11:02Z</time>
      </trkpt>
      <trkpt lat="51.22684602389" lon="4.454114083549">
        <ele>2.6</ele>
        <time>2019-01-31T22:11:09Z</time>
      </trkpt>
      <trkpt lat="51.226934788211" lon="4.454368977128">
        <ele>9.6</ele>
        <time>2019-01-31T22:11:18Z</time>
      </trkpt>
      <trkpt lat="51.226949707993" lon="4.454374928277">
        <ele>9.8</ele>
        <time>2019-01-31T22:11:19Z</time>
      </trkpt>
      <trkpt lat="51.227296467196" lon="4.454472325955">
        <ele>2.2</ele>
        <time>2019-01-31T22:11:34Z</time>
      </trkpt>
      <trkpt lat="51.227471145992" lon="4.454474924344">
        <ele>0</ele>
        <time>2019-01-31T22:11:42Z</time>
      </trkpt>
      <trkpt lat="51.22759871851" lon="4.454758651659">
        <ele>2.2</ele>
        <time>2019-01-31T22:11:50Z</time>
      </trkpt>
      <trkpt lat="51.227780270464" lon="4.454743228963">
        <ele>0</ele>
        <time>2019-01-31T22:11:57Z</time>
      </trkpt>
      <trkpt lat="51.227969617585" lon="4.454726381344">
        <ele>0</ele>
        <time>2019-01-31T22:12:04Z</time>
      </trkpt>
      <trkpt lat="51.228171118461" lon="4.454723196222">
        <ele>0</ele>
        <time>2019-01-31T22:12:11Z</time>
      </trkpt>
      <trkpt lat="51.228367841654" lon="4.454714562865">
        <ele>0</ele>
        <time>2019-01-31T22:12:19Z</time>
      </trkpt>
      <trkpt lat="51.228569174892" lon="4.454732332493">
        <ele>0</ele>
        <time>2019-01-31T22:12:27Z</time>
      </trkpt>
      <trkpt lat="51.228766233361" lon="4.454663181818">
        <ele>2</ele>
        <time>2019-01-31T22:12:34Z</time>
      </trkpt>
      <trkpt lat="51.228973769205" lon="4.454632420245">
        <ele>7.2</ele>
        <time>2019-01-31T22:12:41Z</time>
      </trkpt>
      <trkpt lat="51.229157416634" lon="4.454624708897">
        <ele>11.6</ele>
        <time>2019-01-31T22:12:48Z</time>
      </trkpt>
      <trkpt lat="51.229342488986" lon="4.454663600913">
        <ele>14.2</ele>
        <time>2019-01-31T22:12:55Z</time>
      </trkpt>
      <trkpt lat="51.229526723148" lon="4.454717328892">
        <ele>17.8</ele>
        <time>2019-01-31T22:13:02Z</time>
      </trkpt>
      <trkpt lat="51.229713974794" lon="4.454788323585">
        <ele>18.2</ele>
        <time>2019-01-31T22:13:09Z</time>
      </trkpt>
      <trkpt lat="51.229904495381" lon="4.454838363528">
        <ele>18.4</ele>
        <time>2019-01-31T22:13:16Z</time>
      </trkpt>
      <trkpt lat="51.230099458375" lon="4.454882284684">
        <ele>16.2</ele>
        <time>2019-01-31T22:13:23Z</time>
      </trkpt>
      <trkpt lat="51.230276484103" lon="4.454957386508">
        <ele>16</ele>
        <time>2019-01-31T22:13:30Z</time>
      </trkpt>
      <trkpt lat="51.230442780999" lon="4.455082528275">
        <ele>17.8</ele>
        <time>2019-01-31T22:13:37Z</time>
      </trkpt>
      <trkpt lat="51.230614693768" lon="4.455224350023">
        <ele>18.6</ele>
        <time>2019-01-31T22:13:44Z</time>
      </trkpt>
      <trkpt lat="51.230771016203" lon="4.455372625834">
        <ele>17.8</ele>
        <time>2019-01-31T22:13:50Z</time>
      </trkpt>
      <trkpt lat="51.23091375996" lon="4.455686276532">
        <ele>13.2</ele>
        <time>2019-01-31T22:13:54Z</time>
      </trkpt>
      <trkpt lat="51.23103697389" lon="4.455951815124">
        <ele>12.6</ele>
        <time>2019-01-31T22:13:58Z</time>
      </trkpt>
      <trkpt lat="51.231180555837" lon="4.456152561629">
        <ele>9.4</ele>
        <time>2019-01-31T22:14:04Z</time>
      </trkpt>
      <trkpt lat="51.231363113619" lon="4.456260352863">
        <ele>11.8</ele>
        <time>2019-01-31T22:14:11Z</time>
      </trkpt>
      <trkpt lat="51.231553718025" lon="4.456327994796">
        <ele>13.2</ele>
        <time>2019-01-31T22:14:20Z</time>
      </trkpt>
      <trkpt lat="51.2317402153" lon="4.456428912872">
        <ele>14.2</ele>
        <time>2019-01-31T22:14:29Z</time>
      </trkpt>
      <trkpt lat="51.231913888268" lon="4.456514324433">
        <ele>13.8</ele>
        <time>2019-01-31T22:14:36Z</time>
      </trkpt>
      <trkpt lat="51.23209393148" lon="4.456663019339">
        <ele>12.6</ele>
        <time>2019-01-31T22:14:43Z</time>
      </trkpt>
      <trkpt lat="51.232261820937" lon="4.456844319836">
        <ele>11</ele>
        <time>2019-01-31T22:14:49Z</time>
      </trkpt>
      <trkpt lat="51.232369612171" lon="4.457168867004">
        <ele>0</ele>
        <time>2019-01-31T22:14:52Z</time>
      </trkpt>
      <trkpt lat="51.23240154721" lon="4.457471621232">
        <ele>0</ele>
        <time>2019-01-31T22:14:56Z</time>
      </trkpt>
      <trkpt lat="51.232334994924" lon="4.457742356602">
        <ele>0</ele>
        <time>2019-01-31T22:15:03Z</time>
      </trkpt>
      <trkpt lat="51.232183953086" lon="4.45790597129">
        <ele>0</ele>
        <time>2019-01-31T22:15:09Z</time>
      </trkpt>
      <trkpt lat="51.232003071684" lon="4.458053157454">
        <ele>0</ele>
        <time>2019-01-31T22:15:16Z</time>
      </trkpt>
      <trkpt lat="51.23182822525" lon="4.458165894009">
        <ele>0</ele>
        <time>2019-01-31T22:15:22Z</time>
      </trkpt>
      <trkpt lat="51.231639213405" lon="4.458253233407">
        <ele>4</ele>
        <time>2019-01-31T22:15:28Z</time>
      </trkpt>
      <trkpt lat="51.231469144654" lon="4.458410310213">
        <ele>5.8</ele>
        <time>2019-01-31T22:15:35Z</time>
      </trkpt>
      <trkpt lat="51.231290358727" lon="4.458537882731">
        <ele>4.2</ele>
        <time>2019-01-31T22:15:42Z</time>
      </trkpt>
      <trkpt lat="51.231116769578" lon="4.458655480788">
        <ele>2</ele>
        <time>2019-01-31T22:15:49Z</time>
      </trkpt>
      <trkpt lat="51.230921722765" lon="4.458748268421">
        <ele>2</ele>
        <time>2019-01-31T22:15:56Z</time>
      </trkpt>
      <trkpt lat="51.230736482775" lon="4.458828064109">
        <ele>0.4</ele>
        <time>2019-01-31T22:16:02Z</time>
      </trkpt>
      <trkpt lat="51.230558535038" lon="4.458849437954">
        <ele>0.8</ele>
        <time>2019-01-31T22:16:08Z</time>
      </trkpt>
      <trkpt lat="51.230351250651" lon="4.458896628051">
        <ele>0</ele>
        <time>2019-01-31T22:16:15Z</time>
      </trkpt>
      <trkpt lat="51.23016190353" lon="4.458960246672">
        <ele>0</ele>
        <time>2019-01-31T22:16:22Z</time>
      </trkpt>
      <trkpt lat="51.22998169268" lon="4.458929066004">
        <ele>0</ele>
        <time>2019-01-31T22:16:30Z</time>
      </trkpt>
      <trkpt lat="51.229883289174" lon="4.458301010237">
        <ele>0</ele>
        <time>2019-01-31T22:16:44Z</time>
      </trkpt>
      <trkpt lat="51.229827130444" lon="4.458000854398">
        <ele>0</ele>
        <time>2019-01-31T22:16:51Z</time>
      </trkpt>
      <trkpt lat="51.229764014737" lon="4.45794285165">
        <ele>0</ele>
        <time>2019-01-31T22:16:54Z</time>
      </trkpt>
      <trkpt lat="51.229568129734" lon="4.458020216587">
        <ele>0</ele>
        <time>2019-01-31T22:17:02Z</time>
      </trkpt>
      <trkpt lat="51.229543738405" lon="4.458028011754">
        <ele>0</ele>
        <time>2019-01-31T22:17:03Z</time>
      </trkpt>
    </trkseg>
  </trk>
</gpx>